sensor_id;sensor_type;location;lat;lon;timestamp;pressure;altitude;pressure_sealevel;temperature;humidity
74403;BME280;62837;51.082;13.744;2023-12-20T00:01:11;100017.52;;;6.52;84.69
74403;BME280;62837;51.082;13.744;2023-12-20T00:03:42;100016.06;;;6.53;84.98
74403;BME280;62837;51.082;13.744;2023-12-20T00:06:13;100016.00;;;6.53;84.57
74403;BME280;62837;51.082;13.744;2023-12-20T00:08:44;100013.61;;;6.53;84.65
74403;BME280;62837;51.082;13.744;2023-12-20T00:11:15;100011.13;;;6.52;84.36
74403;BME280;62837;51.082;13.744;2023-12-20T00:13:46;100014.02;;;6.51;84.63
74403;BME280;62837;51.082;13.744;2023-12-20T00:16:20;100007.63;;;6.48;84.50
74403;BME280;62837;51.082;13.744;2023-12-20T00:18:51;100005.36;;;6.46;84.29
74403;BME280;62837;51.082;13.744;2023-12-20T00:21:22;100000.67;;;6.45;84.27
74403;BME280;62837;51.082;13.744;2023-12-20T00:23:53;99997.15;;;6.44;84.14
74403;BME280;62837;51.082;13.744;2023-12-20T00:26:24;99997.40;;;6.45;84.32
74403;BME280;62837;51.082;13.744;2023-12-20T00:28:55;99997.64;;;6.43;84.05
74403;BME280;62837;51.082;13.744;2023-12-20T00:31:27;99999.89;;;6.41;84.10
74403;BME280;62837;51.082;13.744;2023-12-20T00:33:58;99999.73;;;6.39;83.91
74403;BME280;62837;51.082;13.744;2023-12-20T00:36:29;100002.91;;;6.37;83.75
74403;BME280;62837;51.082;13.744;2023-12-20T00:39:00;100003.42;;;6.33;83.74
74403;BME280;62837;51.082;13.744;2023-12-20T00:41:31;100000.05;;;6.30;83.35
74403;BME280;62837;51.082;13.744;2023-12-20T00:44:02;100001.08;;;6.29;83.40
74403;BME280;62837;51.082;13.744;2023-12-20T00:46:33;100002.05;;;6.28;83.49
74403;BME280;62837;51.082;13.744;2023-12-20T00:49:04;99999.05;;;6.26;83.17
74403;BME280;62837;51.082;13.744;2023-12-20T00:51:36;99992.67;;;6.23;83.36
74403;BME280;62837;51.082;13.744;2023-12-20T00:54:07;99988.13;;;6.23;83.45
74403;BME280;62837;51.082;13.744;2023-12-20T00:56:38;99987.45;;;6.22;83.42
74403;BME280;62837;51.082;13.744;2023-12-20T00:59:09;99984.56;;;6.22;83.31
74403;BME280;62837;51.082;13.744;2023-12-20T01:01:40;99981.22;;;6.21;83.37
74403;BME280;62837;51.082;13.744;2023-12-20T01:04:11;99980.36;;;6.19;83.19
74403;BME280;62837;51.082;13.744;2023-12-20T01:06:42;99979.48;;;6.19;83.41
74403;BME280;62837;51.082;13.744;2023-12-20T01:09:14;99973.14;;;6.19;83.37
74403;BME280;62837;51.082;13.744;2023-12-20T01:11:45;99969.53;;;6.19;83.37
74403;BME280;62837;51.082;13.744;2023-12-20T01:14:16;99969.20;;;6.18;83.26
74403;BME280;62837;51.082;13.744;2023-12-20T01:16:47;99960.88;;;6.17;83.23
74403;BME280;62837;51.082;13.744;2023-12-20T01:19:18;99957.56;;;6.15;83.18
74403;BME280;62837;51.082;13.744;2023-12-20T01:21:49;99955.95;;;6.12;83.30
74403;BME280;62837;51.082;13.744;2023-12-20T01:24:20;99953.89;;;6.10;83.42
74403;BME280;62837;51.082;13.744;2023-12-20T01:26:51;99948.96;;;6.06;83.45
74403;BME280;62837;51.082;13.744;2023-12-20T01:29:21;99943.28;;;6.04;83.60
74403;BME280;62837;51.082;13.744;2023-12-20T01:31:52;99939.65;;;6.02;83.76
74403;BME280;62837;51.082;13.744;2023-12-20T01:34:23;99946.25;;;6.01;83.69
74403;BME280;62837;51.082;13.744;2023-12-20T01:36:54;99942.95;;;5.98;83.72
74403;BME280;62837;51.082;13.744;2023-12-20T01:39:26;99938.95;;;5.95;83.79
74403;BME280;62837;51.082;13.744;2023-12-20T01:41:58;99933.55;;;5.93;83.83
74403;BME280;62837;51.082;13.744;2023-12-20T01:44:29;99932.98;;;5.91;83.65
74403;BME280;62837;51.082;13.744;2023-12-20T01:47:01;99932.95;;;5.90;83.50
74403;BME280;62837;51.082;13.744;2023-12-20T01:49:32;99934.25;;;5.90;83.48
74403;BME280;62837;51.082;13.744;2023-12-20T01:52:04;99928.04;;;5.90;83.23
74403;BME280;62837;51.082;13.744;2023-12-20T01:54:37;99924.09;;;5.87;83.23
74403;BME280;62837;51.082;13.744;2023-12-20T01:57:09;99928.63;;;5.84;83.28
74403;BME280;62837;51.082;13.744;2023-12-20T01:59:42;99927.63;;;5.82;83.42
74403;BME280;62837;51.082;13.744;2023-12-20T02:02:13;99931.16;;;5.82;83.19
74403;BME280;62837;51.082;13.744;2023-12-20T02:04:45;99932.14;;;5.80;83.10
74403;BME280;62837;51.082;13.744;2023-12-20T02:07:17;99930.27;;;5.82;83.30
74403;BME280;62837;51.082;13.744;2023-12-20T02:09:49;99927.85;;;5.81;83.30
74403;BME280;62837;51.082;13.744;2023-12-20T02:12:21;99928.02;;;5.81;83.13
74403;BME280;62837;51.082;13.744;2023-12-20T02:14:52;99918.29;;;5.80;83.00
74403;BME280;62837;51.082;13.744;2023-12-20T02:17:23;99915.69;;;5.79;82.96
74403;BME280;62837;51.082;13.744;2023-12-20T02:19:54;99910.05;;;5.77;83.14
74403;BME280;62837;51.082;13.744;2023-12-20T02:22:26;99907.98;;;5.78;83.13
74403;BME280;62837;51.082;13.744;2023-12-20T02:24:57;99911.91;;;5.78;82.91
74403;BME280;62837;51.082;13.744;2023-12-20T02:27:29;99912.92;;;5.77;82.91
74403;BME280;62837;51.082;13.744;2023-12-20T02:30:00;99911.11;;;5.74;82.71
74403;BME280;62837;51.082;13.744;2023-12-20T02:32:31;99910.21;;;5.73;83.01
74403;BME280;62837;51.082;13.744;2023-12-20T02:35:02;99907.01;;;5.73;83.20
74403;BME280;62837;51.082;13.744;2023-12-20T02:37:33;99907.83;;;5.73;83.21
74403;BME280;62837;51.082;13.744;2023-12-20T02:40:06;99906.63;;;5.76;83.25
74403;BME280;62837;51.082;13.744;2023-12-20T02:42:37;99903.02;;;5.79;83.28
74403;BME280;62837;51.082;13.744;2023-12-20T02:45:10;99902.09;;;5.78;82.82
74403;BME280;62837;51.082;13.744;2023-12-20T02:47:40;99900.73;;;5.78;82.72
74403;BME280;62837;51.082;13.744;2023-12-20T02:50:12;99897.90;;;5.78;82.89
74403;BME280;62837;51.082;13.744;2023-12-20T02:55:15;99903.19;;;5.78;82.79
74403;BME280;62837;51.082;13.744;2023-12-20T02:57:47;99901.48;;;5.78;82.83
74403;BME280;62837;51.082;13.744;2023-12-20T03:00:19;99903.50;;;5.77;83.08
74403;BME280;62837;51.082;13.744;2023-12-20T03:02:50;99897.14;;;5.78;83.07
74403;BME280;62837;51.082;13.744;2023-12-20T03:05:21;99902.15;;;5.78;83.22
74403;BME280;62837;51.082;13.744;2023-12-20T03:07:51;99897.65;;;5.80;83.22
74403;BME280;62837;51.082;13.744;2023-12-20T03:10:22;99899.52;;;5.81;82.99
74403;BME280;62837;51.082;13.744;2023-12-20T03:12:56;99898.39;;;5.78;82.90
74403;BME280;62837;51.082;13.744;2023-12-20T03:15:27;99891.67;;;5.78;83.07
74403;BME280;62837;51.082;13.744;2023-12-20T03:17:58;99890.98;;;5.76;82.87
74403;BME280;62837;51.082;13.744;2023-12-20T03:20:29;99892.93;;;5.74;83.05
74403;BME280;62837;51.082;13.744;2023-12-20T03:23:04;99897.58;;;5.74;83.35
74403;BME280;62837;51.082;13.744;2023-12-20T03:25:35;99896.59;;;5.74;83.40
74403;BME280;62837;51.082;13.744;2023-12-20T03:28:06;99887.58;;;5.73;83.34
74403;BME280;62837;51.082;13.744;2023-12-20T03:30:37;99877.43;;;5.76;83.52
74403;BME280;62837;51.082;13.744;2023-12-20T03:33:08;99873.02;;;5.78;83.64
74403;BME280;62837;51.082;13.744;2023-12-20T03:35:39;99870.20;;;5.76;83.31
74403;BME280;62837;51.082;13.744;2023-12-20T03:38:10;99869.04;;;5.76;83.79
74403;BME280;62837;51.082;13.744;2023-12-20T03:40:41;99865.80;;;5.73;83.58
74403;BME280;62837;51.082;13.744;2023-12-20T03:43:12;99867.14;;;5.69;83.63
74403;BME280;62837;51.082;13.744;2023-12-20T03:45:44;99867.60;;;5.68;83.67
74403;BME280;62837;51.082;13.744;2023-12-20T03:48:15;99868.86;;;5.68;83.83
74403;BME280;62837;51.082;13.744;2023-12-20T03:50:46;99865.38;;;5.68;83.80
74403;BME280;62837;51.082;13.744;2023-12-20T03:53:17;99865.18;;;5.69;84.15
74403;BME280;62837;51.082;13.744;2023-12-20T03:55:48;99872.51;;;5.72;84.00
74403;BME280;62837;51.082;13.744;2023-12-20T03:58:19;99869.98;;;5.73;84.06
74403;BME280;62837;51.082;13.744;2023-12-20T04:00:50;99872.97;;;5.76;84.13
74403;BME280;62837;51.082;13.744;2023-12-20T04:03:21;99871.20;;;5.77;83.65
74403;BME280;62837;51.082;13.744;2023-12-20T04:05:52;99877.15;;;5.77;83.95
74403;BME280;62837;51.082;13.744;2023-12-20T04:08:23;99878.27;;;5.76;84.08
74403;BME280;62837;51.082;13.744;2023-12-20T04:10:54;99873.66;;;5.75;83.85
74403;BME280;62837;51.082;13.744;2023-12-20T04:13:25;99877.06;;;5.74;84.01
74403;BME280;62837;51.082;13.744;2023-12-20T04:15:56;99871.83;;;5.74;83.85
74403;BME280;62837;51.082;13.744;2023-12-20T04:18:26;99869.09;;;5.74;83.98
74403;BME280;62837;51.082;13.744;2023-12-20T04:20:58;99873.46;;;5.74;84.06
74403;BME280;62837;51.082;13.744;2023-12-20T04:23:29;99874.81;;;5.72;84.06
74403;BME280;62837;51.082;13.744;2023-12-20T04:26:00;99872.14;;;5.72;84.23
74403;BME280;62837;51.082;13.744;2023-12-20T04:28:30;99871.45;;;5.74;84.19
74403;BME280;62837;51.082;13.744;2023-12-20T04:31:02;99874.98;;;5.76;84.46
74403;BME280;62837;51.082;13.744;2023-12-20T04:33:32;99873.71;;;5.77;84.06
74403;BME280;62837;51.082;13.744;2023-12-20T04:36:04;99876.22;;;5.75;84.23
74403;BME280;62837;51.082;13.744;2023-12-20T04:38:35;99872.03;;;5.74;84.31
74403;BME280;62837;51.082;13.744;2023-12-20T04:41:06;99872.46;;;5.73;84.40
74403;BME280;62837;51.082;13.744;2023-12-20T04:43:37;99868.92;;;5.73;84.60
74403;BME280;62837;51.082;13.744;2023-12-20T04:46:08;99866.48;;;5.71;84.70
74403;BME280;62837;51.082;13.744;2023-12-20T04:48:39;99865.61;;;5.66;84.83
74403;BME280;62837;51.082;13.744;2023-12-20T04:51:10;99872.96;;;5.68;84.94
74403;BME280;62837;51.082;13.744;2023-12-20T04:53:41;99879.17;;;5.68;84.98
74403;BME280;62837;51.082;13.744;2023-12-20T04:56:12;99879.69;;;5.67;84.73
74403;BME280;62837;51.082;13.744;2023-12-20T04:58:43;99881.58;;;5.69;84.88
74403;BME280;62837;51.082;13.744;2023-12-20T05:01:14;99886.64;;;5.70;85.10
74403;BME280;62837;51.082;13.744;2023-12-20T05:03:46;99883.05;;;5.72;85.01
74403;BME280;62837;51.082;13.744;2023-12-20T05:06:17;99881.83;;;5.72;85.12
74403;BME280;62837;51.082;13.744;2023-12-20T05:08:48;99880.14;;;5.72;85.28
74403;BME280;62837;51.082;13.744;2023-12-20T05:11:19;99875.41;;;5.73;85.18
74403;BME280;62837;51.082;13.744;2023-12-20T05:13:50;99879.51;;;5.73;85.28
74403;BME280;62837;51.082;13.744;2023-12-20T05:16:21;99884.11;;;5.74;85.15
74403;BME280;62837;51.082;13.744;2023-12-20T05:18:52;99885.30;;;5.74;85.08
74403;BME280;62837;51.082;13.744;2023-12-20T05:21:23;99889.42;;;5.75;85.35
74403;BME280;62837;51.082;13.744;2023-12-20T05:23:54;99876.58;;;5.71;85.10
74403;BME280;62837;51.082;13.744;2023-12-20T05:26:24;99892.02;;;5.81;85.13
74403;BME280;62837;51.082;13.744;2023-12-20T05:28:55;99898.36;;;5.84;84.99
74403;BME280;62837;51.082;13.744;2023-12-20T05:31:26;99902.37;;;5.85;84.92
74403;BME280;62837;51.082;13.744;2023-12-20T05:33:57;99903.72;;;5.86;85.02
74403;BME280;62837;51.082;13.744;2023-12-20T05:36:28;99897.88;;;5.86;85.09
74403;BME280;62837;51.082;13.744;2023-12-20T05:38:59;99899.31;;;5.85;85.17
74403;BME280;62837;51.082;13.744;2023-12-20T05:41:30;99898.76;;;5.85;85.08
74403;BME280;62837;51.082;13.744;2023-12-20T05:44:01;99898.38;;;5.85;85.42
74403;BME280;62837;51.082;13.744;2023-12-20T05:46:32;99902.65;;;5.86;85.36
74403;BME280;62837;51.082;13.744;2023-12-20T05:49:02;99904.05;;;5.85;85.44
74403;BME280;62837;51.082;13.744;2023-12-20T05:51:34;99907.83;;;5.86;85.40
74403;BME280;62837;51.082;13.744;2023-12-20T05:54:05;99904.05;;;5.87;85.60
74403;BME280;62837;51.082;13.744;2023-12-20T05:56:36;99908.02;;;5.89;85.48
74403;BME280;62837;51.082;13.744;2023-12-20T05:59:07;99915.90;;;5.89;85.31
74403;BME280;62837;51.082;13.744;2023-12-20T06:01:37;99913.73;;;5.90;85.40
74403;BME280;62837;51.082;13.744;2023-12-20T06:04:08;99918.52;;;5.89;85.53
74403;BME280;62837;51.082;13.744;2023-12-20T06:06:43;99925.95;;;5.90;85.33
74403;BME280;62837;51.082;13.744;2023-12-20T06:09:14;99927.06;;;5.88;85.32
74403;BME280;62837;51.082;13.744;2023-12-20T06:11:45;99931.31;;;5.90;85.60
74403;BME280;62837;51.082;13.744;2023-12-20T06:14:16;99926.46;;;5.93;85.85
74403;BME280;62837;51.082;13.744;2023-12-20T06:16:48;99923.50;;;5.94;85.68
74403;BME280;62837;51.082;13.744;2023-12-20T06:19:18;99919.63;;;5.97;85.49
74403;BME280;62837;51.082;13.744;2023-12-20T06:21:50;99920.95;;;6.00;85.37
74403;BME280;62837;51.082;13.744;2023-12-20T06:24:20;99926.17;;;6.02;85.28
74403;BME280;62837;51.082;13.744;2023-12-20T06:26:52;99925.98;;;6.04;85.32
74403;BME280;62837;51.082;13.744;2023-12-20T06:29:22;99930.54;;;6.08;85.17
74403;BME280;62837;51.082;13.744;2023-12-20T06:31:53;99929.22;;;6.07;84.92
74403;BME280;62837;51.082;13.744;2023-12-20T06:34:24;99930.03;;;6.06;85.26
74403;BME280;62837;51.082;13.744;2023-12-20T06:36:55;99938.09;;;6.08;85.18
74403;BME280;62837;51.082;13.744;2023-12-20T06:39:26;99938.30;;;6.08;85.06
74403;BME280;62837;51.082;13.744;2023-12-20T06:41:57;99944.09;;;6.09;85.13
74403;BME280;62837;51.082;13.744;2023-12-20T06:44:28;99948.50;;;6.08;85.21
74403;BME280;62837;51.082;13.744;2023-12-20T06:46:59;99951.50;;;6.05;85.25
74403;BME280;62837;51.082;13.744;2023-12-20T06:49:30;99956.19;;;5.99;85.59
74403;BME280;62837;51.082;13.744;2023-12-20T06:52:02;99962.96;;;6.05;89.46
74403;BME280;62837;51.082;13.744;2023-12-20T06:54:33;99971.45;;;6.42;93.29
74403;BME280;62837;51.082;13.744;2023-12-20T06:57:05;99971.31;;;7.01;94.89
74403;BME280;62837;51.082;13.744;2023-12-20T06:59:40;99969.55;;;7.51;91.82
74403;BME280;62837;51.082;13.744;2023-12-20T07:02:11;99972.52;;;7.78;89.46
74403;BME280;62837;51.082;13.744;2023-12-20T07:04:42;99966.23;;;8.12;88.61
74403;BME280;62837;51.082;13.744;2023-12-20T07:07:13;99968.33;;;8.25;86.02
74403;BME280;62837;51.082;13.744;2023-12-20T07:09:44;99965.04;;;8.24;83.23
74403;BME280;62837;51.082;13.744;2023-12-20T07:12:15;99968.08;;;8.03;81.86
74403;BME280;62837;51.082;13.744;2023-12-20T07:14:45;99966.84;;;7.77;81.52
74403;BME280;62837;51.082;13.744;2023-12-20T07:17:16;99964.90;;;7.51;81.70
74403;BME280;62837;51.082;13.744;2023-12-20T07:19:47;99969.65;;;7.31;81.83
74403;BME280;62837;51.082;13.744;2023-12-20T07:22:18;99966.10;;;7.12;81.78
74403;BME280;62837;51.082;13.744;2023-12-20T07:24:49;99976.55;;;6.97;82.21
74403;BME280;62837;51.082;13.744;2023-12-20T07:27:22;99973.39;;;6.86;82.48
74403;BME280;62837;51.082;13.744;2023-12-20T07:29:52;99981.19;;;6.76;82.58
74403;BME280;62837;51.082;13.744;2023-12-20T07:32:23;99979.20;;;6.64;82.75
74403;BME280;62837;51.082;13.744;2023-12-20T07:34:54;99989.16;;;6.57;82.95
74403;BME280;62837;51.082;13.744;2023-12-20T07:37:25;99976.02;;;6.49;83.05
74403;BME280;62837;51.082;13.744;2023-12-20T07:39:56;99978.38;;;6.42;83.15
74403;BME280;62837;51.082;13.744;2023-12-20T07:42:27;99975.73;;;6.36;83.32
74403;BME280;62837;51.082;13.744;2023-12-20T07:44:58;99968.93;;;6.29;83.44
74403;BME280;62837;51.082;13.744;2023-12-20T07:47:29;99972.61;;;6.27;83.45
74403;BME280;62837;51.082;13.744;2023-12-20T07:50:00;99974.71;;;6.23;83.52
74403;BME280;62837;51.082;13.744;2023-12-20T07:52:32;99971.64;;;6.20;83.60
74403;BME280;62837;51.082;13.744;2023-12-20T07:55:04;99961.82;;;6.20;83.56
74403;BME280;62837;51.082;13.744;2023-12-20T07:57:35;99960.75;;;6.19;83.44
74403;BME280;62837;51.082;13.744;2023-12-20T08:00:08;99957.66;;;6.15;83.29
74403;BME280;62837;51.082;13.744;2023-12-20T08:02:40;99955.48;;;6.08;83.04
74403;BME280;62837;51.082;13.744;2023-12-20T08:05:11;99961.35;;;6.04;83.20
74403;BME280;62837;51.082;13.744;2023-12-20T08:07:45;99968.34;;;6.01;83.07
74403;BME280;62837;51.082;13.744;2023-12-20T08:10:16;99971.98;;;6.03;83.03
74403;BME280;62837;51.082;13.744;2023-12-20T08:12:49;99973.91;;;6.14;82.88
74403;BME280;62837;51.082;13.744;2023-12-20T08:15:20;99976.44;;;6.32;82.53
74403;BME280;62837;51.082;13.744;2023-12-20T08:17:51;99976.32;;;6.56;82.20
74403;BME280;62837;51.082;13.744;2023-12-20T08:20:22;99976.58;;;6.80;81.91
74403;BME280;62837;51.082;13.744;2023-12-20T08:23:08;99974.91;;;7.00;80.92
74403;BME280;62837;51.082;13.744;2023-12-20T08:25:39;99977.36;;;6.96;80.39
74403;BME280;62837;51.082;13.744;2023-12-20T08:28:10;99975.73;;;6.87;80.60
74403;BME280;62837;51.082;13.744;2023-12-20T08:30:40;99979.90;;;6.83;80.59
74403;BME280;62837;51.082;13.744;2023-12-20T08:33:11;99976.52;;;6.78;80.54
74403;BME280;62837;51.082;13.744;2023-12-20T08:35:43;99971.69;;;6.79;80.03
74403;BME280;62837;51.082;13.744;2023-12-20T08:38:14;99976.20;;;6.90;80.19
74403;BME280;62837;51.082;13.744;2023-12-20T08:40:46;99975.38;;;7.16;79.93
74403;BME280;62837;51.082;13.744;2023-12-20T08:43:18;99972.02;;;7.45;79.40
74403;BME280;62837;51.082;13.744;2023-12-20T08:45:49;99974.59;;;7.72;78.91
74403;BME280;62837;51.082;13.744;2023-12-20T08:48:19;99980.05;;;7.97;77.99
74403;BME280;62837;51.082;13.744;2023-12-20T08:50:50;99978.61;;;8.13;78.15
74403;BME280;62837;51.082;13.744;2023-12-20T08:53:22;99984.60;;;8.33;77.97
74403;BME280;62837;51.082;13.744;2023-12-20T08:55:52;99984.31;;;8.52;76.50
74403;BME280;62837;51.082;13.744;2023-12-20T08:58:23;99984.80;;;8.48;75.55
74403;BME280;62837;51.082;13.744;2023-12-20T09:00:54;99990.76;;;8.33;74.82
74403;BME280;62837;51.082;13.744;2023-12-20T09:03:27;99985.87;;;8.14;73.79
74403;BME280;62837;51.082;13.744;2023-12-20T09:05:58;99988.95;;;7.96;73.48
74403;BME280;62837;51.082;13.744;2023-12-20T09:08:29;99980.88;;;7.83;73.58
74403;BME280;62837;51.082;13.744;2023-12-20T09:11:00;99983.14;;;7.72;73.67
74403;BME280;62837;51.082;13.744;2023-12-20T09:13:31;99978.55;;;7.63;73.43
74403;BME280;62837;51.082;13.744;2023-12-20T09:16:02;99977.53;;;7.57;73.83
74403;BME280;62837;51.082;13.744;2023-12-20T09:18:33;99980.55;;;7.75;72.78
74403;BME280;62837;51.082;13.744;2023-12-20T09:21:04;99972.88;;;7.97;72.35
74403;BME280;62837;51.082;13.744;2023-12-20T09:23:35;99972.86;;;8.14;72.28
74403;BME280;62837;51.082;13.744;2023-12-20T09:26:07;99979.61;;;8.21;71.61
74403;BME280;62837;51.082;13.744;2023-12-20T09:28:38;99979.47;;;8.18;71.14
74403;BME280;62837;51.082;13.744;2023-12-20T09:31:10;99973.55;;;8.22;70.76
74403;BME280;62837;51.082;13.744;2023-12-20T09:33:41;99970.27;;;8.22;70.15
74403;BME280;62837;51.082;13.744;2023-12-20T09:36:12;99967.80;;;8.18;70.07
74403;BME280;62837;51.082;13.744;2023-12-20T09:38:43;99959.23;;;8.17;70.44
74403;BME280;62837;51.082;13.744;2023-12-20T09:41:16;99962.46;;;8.12;70.03
74403;BME280;62837;51.082;13.744;2023-12-20T09:43:47;99963.08;;;8.01;69.65
74403;BME280;62837;51.082;13.744;2023-12-20T09:46:21;99960.77;;;8.04;70.83
74403;BME280;62837;51.082;13.744;2023-12-20T09:48:55;99960.38;;;8.24;70.87
74403;BME280;62837;51.082;13.744;2023-12-20T09:51:27;99957.05;;;8.41;70.33
74403;BME280;62837;51.082;13.744;2023-12-20T09:53:57;99950.73;;;8.49;69.77
74403;BME280;62837;51.082;13.744;2023-12-20T09:56:29;99951.81;;;8.46;69.67
74403;BME280;62837;51.082;13.744;2023-12-20T09:59:01;99944.14;;;8.42;69.28
74403;BME280;62837;51.082;13.744;2023-12-20T10:01:32;99937.16;;;8.40;69.27
74403;BME280;62837;51.082;13.744;2023-12-20T10:04:06;99932.98;;;8.44;69.18
74403;BME280;62837;51.082;13.744;2023-12-20T10:06:54;99933.45;;;8.37;68.65
74403;BME280;62837;51.082;13.744;2023-12-20T10:09:26;99930.39;;;8.22;68.55
74403;BME280;62837;51.082;13.744;2023-12-20T10:11:58;99925.60;;;8.17;69.31
74403;BME280;62837;51.082;13.744;2023-12-20T10:14:29;99927.46;;;8.20;68.59
74403;BME280;62837;51.082;13.744;2023-12-20T10:17:05;99926.66;;;8.19;69.07
74403;BME280;62837;51.082;13.744;2023-12-20T10:19:36;99920.48;;;8.17;68.49
74403;BME280;62837;51.082;13.744;2023-12-20T10:22:07;99919.20;;;8.21;68.61
74403;BME280;62837;51.082;13.744;2023-12-20T10:24:38;99912.05;;;8.30;68.53
74403;BME280;62837;51.082;13.744;2023-12-20T10:27:10;99915.83;;;8.34;67.99
74403;BME280;62837;51.082;13.744;2023-12-20T10:29:41;99913.98;;;8.25;68.02
74403;BME280;62837;51.082;13.744;2023-12-20T10:32:25;99909.34;;;8.20;68.49
74403;BME280;62837;51.082;13.744;2023-12-20T10:34:56;99902.83;;;8.17;68.37
74403;BME280;62837;51.082;13.744;2023-12-20T10:37:29;99905.10;;;8.19;68.12
74403;BME280;62837;51.082;13.744;2023-12-20T10:40:00;99900.80;;;8.17;67.38
74403;BME280;62837;51.082;13.744;2023-12-20T10:42:36;99897.51;;;8.17;66.43
74403;BME280;62837;51.082;13.744;2023-12-20T10:45:09;99895.61;;;8.09;66.88
74403;BME280;62837;51.082;13.744;2023-12-20T10:47:40;99882.17;;;7.95;67.11
74403;BME280;62837;51.082;13.744;2023-12-20T10:50:11;99875.04;;;7.94;66.85
74403;BME280;62837;51.082;13.744;2023-12-20T10:52:44;99873.88;;;8.01;66.81
74403;BME280;62837;51.082;13.744;2023-12-20T10:55:15;99872.71;;;8.04;66.22
74403;BME280;62837;51.082;13.744;2023-12-20T10:57:47;99871.87;;;8.02;65.97
74403;BME280;62837;51.082;13.744;2023-12-20T11:00:22;99868.77;;;8.05;66.16
74403;BME280;62837;51.082;13.744;2023-12-20T11:02:55;99875.80;;;8.11;66.19
74403;BME280;62837;51.082;13.744;2023-12-20T11:05:33;99875.17;;;8.22;66.11
74403;BME280;62837;51.082;13.744;2023-12-20T11:08:09;99875.61;;;8.34;65.61
74403;BME280;62837;51.082;13.744;2023-12-20T11:10:49;99876.35;;;8.41;65.83
74403;BME280;62837;51.082;13.744;2023-12-20T11:13:26;99871.22;;;8.44;65.53
74403;BME280;62837;51.082;13.744;2023-12-20T11:15:58;99866.65;;;8.47;65.30
74403;BME280;62837;51.082;13.744;2023-12-20T11:18:33;99860.67;;;8.40;65.34
74403;BME280;62837;51.082;13.744;2023-12-20T11:21:05;99860.39;;;8.28;64.86
74403;BME280;62837;51.082;13.744;2023-12-20T11:23:36;99866.10;;;8.14;64.87
74403;BME280;62837;51.082;13.744;2023-12-20T11:26:07;99863.30;;;8.01;64.79
74403;BME280;62837;51.082;13.744;2023-12-20T11:28:39;99866.33;;;7.88;65.12
74403;BME280;62837;51.082;13.744;2023-12-20T11:31:09;99865.26;;;7.78;65.14
74403;BME280;62837;51.082;13.744;2023-12-20T11:33:45;99869.41;;;7.69;65.43
74403;BME280;62837;51.082;13.744;2023-12-20T11:36:19;99863.27;;;7.61;65.23
74403;BME280;62837;51.082;13.744;2023-12-20T11:38:50;99861.50;;;7.55;65.67
74403;BME280;62837;51.082;13.744;2023-12-20T11:41:25;99852.82;;;7.45;65.93
74403;BME280;62837;51.082;13.744;2023-12-20T11:43:56;99852.10;;;7.44;65.66
74403;BME280;62837;51.082;13.744;2023-12-20T11:46:27;99851.13;;;7.43;66.35
74403;BME280;62837;51.082;13.744;2023-12-20T11:48:59;99843.71;;;7.40;65.83
74403;BME280;62837;51.082;13.744;2023-12-20T11:51:29;99842.68;;;7.37;66.41
74403;BME280;62837;51.082;13.744;2023-12-20T11:54:00;99843.58;;;7.42;66.38
74403;BME280;62837;51.082;13.744;2023-12-20T11:56:32;99834.95;;;7.51;65.79
74403;BME280;62837;51.082;13.744;2023-12-20T11:59:03;99829.98;;;7.59;65.38
74403;BME280;62837;51.082;13.744;2023-12-20T12:01:52;99827.15;;;7.69;65.63
74403;BME280;62837;51.082;13.744;2023-12-20T12:04:26;99824.61;;;7.76;64.99
74403;BME280;62837;51.082;13.744;2023-12-20T12:06:58;99817.96;;;7.83;64.95
74403;BME280;62837;51.082;13.744;2023-12-20T12:09:29;99817.27;;;7.90;64.79
74403;BME280;62837;51.082;13.744;2023-12-20T12:12:00;99814.11;;;7.95;63.94
74403;BME280;62837;51.082;13.744;2023-12-20T12:14:31;99810.77;;;7.97;63.98
74403;BME280;62837;51.082;13.744;2023-12-20T12:17:02;99807.23;;;8.01;64.01
74403;BME280;62837;51.082;13.744;2023-12-20T12:19:33;99807.95;;;8.05;64.07
74403;BME280;62837;51.082;13.744;2023-12-20T12:22:08;99798.02;;;8.09;63.72
74403;BME280;62837;51.082;13.744;2023-12-20T12:24:45;99799.11;;;8.09;63.29
74403;BME280;62837;51.082;13.744;2023-12-20T12:27:17;99790.60;;;8.07;62.35
74403;BME280;62837;51.082;13.744;2023-12-20T12:32:45;99784.66;;;8.09;63.45
74403;BME280;62837;51.082;13.744;2023-12-20T12:35:16;99775.70;;;8.11;63.73
74403;BME280;62837;51.082;13.744;2023-12-20T12:37:47;99772.09;;;8.17;63.54
74403;BME280;62837;51.082;13.744;2023-12-20T12:40:18;99765.32;;;8.25;63.29
74403;BME280;62837;51.082;13.744;2023-12-20T12:42:49;99764.59;;;8.33;63.83
74403;BME280;62837;51.082;13.744;2023-12-20T12:45:20;99764.34;;;8.34;62.62
74403;BME280;62837;51.082;13.744;2023-12-20T12:47:51;99761.82;;;8.34;62.97
74403;BME280;62837;51.082;13.744;2023-12-20T12:50:25;99758.59;;;8.40;63.08
74403;BME280;62837;51.082;13.744;2023-12-20T12:52:58;99749.39;;;8.46;62.36
74403;BME280;62837;51.082;13.744;2023-12-20T12:55:29;99744.73;;;8.47;62.20
74403;BME280;62837;51.082;13.744;2023-12-20T12:58:00;99748.41;;;8.46;62.26
74403;BME280;62837;51.082;13.744;2023-12-20T13:00:32;99746.70;;;8.44;62.82
74403;BME280;62837;51.082;13.744;2023-12-20T13:03:03;99742.66;;;8.41;62.76
74403;BME280;62837;51.082;13.744;2023-12-20T13:05:34;99743.35;;;8.45;63.24
74403;BME280;62837;51.082;13.744;2023-12-20T13:08:09;99741.88;;;8.45;62.86
74403;BME280;62837;51.082;13.744;2023-12-20T13:10:41;99737.70;;;8.44;62.84
74403;BME280;62837;51.082;13.744;2023-12-20T13:13:12;99731.50;;;8.43;62.94
74403;BME280;62837;51.082;13.744;2023-12-20T13:15:43;99735.40;;;8.44;62.61
74403;BME280;62837;51.082;13.744;2023-12-20T13:18:20;99726.89;;;8.43;62.47
74403;BME280;62837;51.082;13.744;2023-12-20T13:20:51;99720.69;;;8.43;62.86
74403;BME280;62837;51.082;13.744;2023-12-20T13:23:22;99719.02;;;8.42;62.42
74403;BME280;62837;51.082;13.744;2023-12-20T13:25:53;99725.17;;;8.40;62.42
74403;BME280;62837;51.082;13.744;2023-12-20T13:28:24;99721.90;;;8.37;64.47